sensor_id;sensor_type;location;lat;lon;timestamp;P1;durP1;ratioP1;P2;durP2;ratioP2
10041;SDS011;5061;49.068;12.058;2023-11-21T00:01:49;1.47;;;0.90;;
10041;SDS011;5061;49.068;12.058;2023-11-21T00:05:13;1.00;;;0.90;;
10041;SDS011;5061;49.068;12.058;2023-11-21T00:08:34;1.47;;;0.90;;
10041;SDS011;5061;49.068;12.058;2023-11-21T00:11:55;2.03;;;1.10;;
10041;SDS011;5061;49.068;12.058;2023-11-21T00:15:16;2.20;;;1.00;;
10041;SDS011;5061;49.068;12.058;2023-11-21T00:18:36;0.77;;;0.77;;
10041;SDS011;5061;49.068;12.058;2023-11-21T00:21:57;0.90;;;0.70;;
10041;SDS011;5061;49.068;12.058;2023-11-21T00:25:18;1.23;;;0.90;;
10041;SDS011;5061;49.068;12.058;2023-11-21T00:28:38;0.90;;;0.70;;
10041;SDS011;5061;49.068;12.058;2023-11-21T00:32:00;1.97;;;0.90;;
10041;SDS011;5061;49.068;12.058;2023-11-21T00:35:20;2.27;;;0.90;;
10041;SDS011;5061;49.068;12.058;2023-11-21T00:38:41;1.00;;;0.90;;
10041;SDS011;5061;49.068;12.058;2023-11-21T00:42:01;4.40;;;1.70;;
10041;SDS011;5061;49.068;12.058;2023-11-21T00:45:22;1.37;;;1.23;;
10041;SDS011;5061;49.068;12.058;2023-11-21T00:48:43;2.13;;;1.47;;
10041;SDS011;5061;49.068;12.058;2023-11-21T00:52:03;2.23;;;1.57;;
10041;SDS011;5061;49.068;12.058;2023-11-21T00:55:24;2.87;;;2.10;;
10041;SDS011;5061;49.068;12.058;2023-11-21T00:58:45;2.93;;;1.50;;
10041;SDS011;5061;49.068;12.058;2023-11-21T01:02:09;3.13;;;1.47;;
10041;SDS011;5061;49.068;12.058;2023-11-21T01:05:30;3.00;;;1.90;;
10041;SDS011;5061;49.068;12.058;2023-11-21T01:08:51;3.33;;;1.63;;
10041;SDS011;5061;49.068;12.058;2023-11-21T01:12:12;5.63;;;1.53;;
10041;SDS011;5061;49.068;12.058;2023-11-21T01:15:35;2.40;;;1.00;;
10041;SDS011;5061;49.068;12.058;2023-11-21T01:18:56;1.40;;;1.23;;
10041;SDS011;5061;49.068;12.058;2023-11-21T01:22:17;1.60;;;1.50;;
10041;SDS011;5061;49.068;12.058;2023-11-21T01:25:40;2.23;;;1.00;;
10041;SDS011;5061;49.068;12.058;2023-11-21T01:29:00;1.37;;;1.20;;
10041;SDS011;5061;49.068;12.058;2023-11-21T01:32:21;2.53;;;1.60;;
10041;SDS011;5061;49.068;12.058;2023-11-21T01:35:42;2.03;;;1.70;;
10041;SDS011;5061;49.068;12.058;2023-11-21T01:39:02;5.50;;;2.60;;
10041;SDS011;5061;49.068;12.058;2023-11-21T01:42:28;3.10;;;2.13;;
10041;SDS011;5061;49.068;12.058;2023-11-21T01:45:49;4.67;;;2.37;;
10041;SDS011;5061;49.068;12.058;2023-11-21T01:49:10;3.93;;;2.30;;
10041;SDS011;5061;49.068;12.058;2023-11-21T01:52:34;6.30;;;2.30;;
10041;SDS011;5061;49.068;12.058;2023-11-21T01:55:55;4.50;;;2.30;;
10041;SDS011;5061;49.068;12.058;2023-11-21T01:59:20;3.80;;;2.03;;
10041;SDS011;5061;49.068;12.058;2023-11-21T02:02:43;3.40;;;2.43;;
10041;SDS011;5061;49.068;12.058;2023-11-21T02:06:04;4.00;;;2.30;;
10041;SDS011;5061;49.068;12.058;2023-11-21T02:09:26;5.63;;;2.80;;
10041;SDS011;5061;49.068;12.058;2023-11-21T02:12:49;2.30;;;1.70;;
10041;SDS011;5061;49.068;12.058;2023-11-21T02:16:12;5.00;;;1.60;;
10041;SDS011;5061;49.068;12.058;2023-11-21T02:19:33;6.83;;;1.60;;
10041;SDS011;5061;49.068;12.058;2023-11-21T02:22:55;5.57;;;2.30;;
10041;SDS011;5061;49.068;12.058;2023-11-21T02:26:19;3.07;;;1.47;;
10041;SDS011;5061;49.068;12.058;2023-11-21T02:29:40;1.33;;;1.20;;
10041;SDS011;5061;49.068;12.058;2023-11-21T02:33:01;1.47;;;1.33;;
10041;SDS011;5061;49.068;12.058;2023-11-21T02:36:22;1.63;;;1.10;;
10041;SDS011;5061;49.068;12.058;2023-11-21T02:39:43;1.93;;;1.10;;
10041;SDS011;5061;49.068;12.058;2023-11-21T02:43:04;2.13;;;1.37;;
10041;SDS011;5061;49.068;12.058;2023-11-21T02:46:25;3.00;;;1.20;;
10041;SDS011;5061;49.068;12.058;2023-11-21T02:49:46;0.97;;;0.80;;
10041;SDS011;5061;49.068;12.058;2023-11-21T02:53:07;1.30;;;1.00;;
10041;SDS011;5061;49.068;12.058;2023-11-21T02:56:27;1.30;;;0.80;;
10041;SDS011;5061;49.068;12.058;2023-11-21T02:59:48;1.73;;;1.23;;
10041;SDS011;5061;49.068;12.058;2023-11-21T03:03:10;1.30;;;0.90;;
10041;SDS011;5061;49.068;12.058;2023-11-21T03:06:30;1.20;;;0.90;;
10041;SDS011;5061;49.068;12.058;2023-11-21T03:09:51;0.90;;;0.73;;
10041;SDS011;5061;49.068;12.058;2023-11-21T03:13:11;0.93;;;0.73;;
10041;SDS011;5061;49.068;12.058;2023-11-21T03:16:32;1.17;;;0.80;;
10041;SDS011;5061;49.068;12.058;2023-11-21T03:19:53;1.60;;;1.00;;
10041;SDS011;5061;49.068;12.058;2023-11-21T03:23:14;1.00;;;0.90;;
10041;SDS011;5061;49.068;12.058;2023-11-21T03:26:35;5.57;;;1.30;;
10041;SDS011;5061;49.068;12.058;2023-11-21T03:29:58;1.00;;;0.80;;
10041;SDS011;5061;49.068;12.058;2023-11-21T03:33:18;0.70;;;0.70;;
10041;SDS011;5061;49.068;12.058;2023-11-21T03:36:39;1.00;;;0.90;;
10041;SDS011;5061;49.068;12.058;2023-11-21T03:40:00;0.80;;;0.70;;
10041;SDS011;5061;49.068;12.058;2023-11-21T03:43:20;0.90;;;0.70;;
10041;SDS011;5061;49.068;12.058;2023-11-21T03:46:41;0.70;;;0.70;;
10041;SDS011;5061;49.068;12.058;2023-11-21T03:50:01;2.47;;;0.90;;
10041;SDS011;5061;49.068;12.058;2023-11-21T03:53:23;0.70;;;0.70;;
10041;SDS011;5061;49.068;12.058;2023-11-21T03:56:44;1.73;;;0.80;;
10041;SDS011;5061;49.068;12.058;2023-11-21T04:00:04;1.80;;;1.10;;
10041;SDS011;5061;49.068;12.058;2023-11-21T04:03:28;1.10;;;1.00;;
10041;SDS011;5061;49.068;12.058;2023-11-21T04:06:49;1.30;;;1.10;;
10041;SDS011;5061;49.068;12.058;2023-11-21T04:10:11;1.80;;;1.00;;
10041;SDS011;5061;49.068;12.058;2023-11-21T04:13:32;1.40;;;1.10;;
10041;SDS011;5061;49.068;12.058;2023-11-21T04:16:53;1.00;;;0.90;;
10041;SDS011;5061;49.068;12.058;2023-11-21T04:20:14;6.67;;;1.10;;
10041;SDS011;5061;49.068;12.058;2023-11-21T04:23:34;1.20;;;1.00;;
10041;SDS011;5061;49.068;12.058;2023-11-21T04:26:55;1.27;;;1.10;;
10041;SDS011;5061;49.068;12.058;2023-11-21T04:30:16;2.03;;;1.00;;
10041;SDS011;5061;49.068;12.058;2023-11-21T04:33:37;2.43;;;1.63;;
10041;SDS011;5061;49.068;12.058;2023-11-21T04:36:57;1.30;;;1.20;;
10041;SDS011;5061;49.068;12.058;2023-11-21T04:40:18;1.73;;;1.17;;
10041;SDS011;5061;49.068;12.058;2023-11-21T04:43:40;3.13;;;1.10;;
10041;SDS011;5061;49.068;12.058;2023-11-21T04:47:02;3.27;;;1.00;;
10041;SDS011;5061;49.068;12.058;2023-11-21T04:50:24;4.80;;;1.67;;
10041;SDS011;5061;49.068;12.058;2023-11-21T04:53:47;3.20;;;1.30;;
10041;SDS011;5061;49.068;12.058;2023-11-21T04:57:07;2.70;;;1.20;;
10041;SDS011;5061;49.068;12.058;2023-11-21T05:00:28;1.47;;;1.30;;
10041;SDS011;5061;49.068;12.058;2023-11-21T05:03:48;2.00;;;1.70;;
10041;SDS011;5061;49.068;12.058;2023-11-21T05:07:09;2.17;;;1.60;;
10041;SDS011;5061;49.068;12.058;2023-11-21T05:10:30;2.47;;;1.70;;
10041;SDS011;5061;49.068;12.058;2023-11-21T05:13:50;4.00;;;1.60;;
10041;SDS011;5061;49.068;12.058;2023-11-21T05:17:11;2.40;;;1.33;;
10041;SDS011;5061;49.068;12.058;2023-11-21T05:20:31;4.87;;;2.20;;
10041;SDS011;5061;49.068;12.058;2023-11-21T05:23:53;1.63;;;1.50;;
10041;SDS011;5061;49.068;12.058;2023-11-21T05:27:13;1.27;;;1.17;;
10041;SDS011;5061;49.068;12.058;2023-11-21T05:30:34;1.60;;;1.50;;
10041;SDS011;5061;49.068;12.058;2023-11-21T05:33:55;1.73;;;1.40;;
10041;SDS011;5061;49.068;12.058;2023-11-21T05:37:16;2.27;;;1.50;;
10041;SDS011;5061;49.068;12.058;2023-11-21T05:40:37;1.70;;;1.50;;
10041;SDS011;5061;49.068;12.058;2023-11-21T05:43:58;2.60;;;2.07;;
10041;SDS011;5061;49.068;12.058;2023-11-21T05:47:18;4.00;;;2.07;;
10041;SDS011;5061;49.068;12.058;2023-11-21T05:50:39;4.87;;;2.20;;
10041;SDS011;5061;49.068;12.058;2023-11-21T05:53:59;2.47;;;1.73;;
10041;SDS011;5061;49.068;12.058;2023-11-21T05:57:20;2.37;;;2.13;;
10041;SDS011;5061;49.068;12.058;2023-11-21T06:00:41;3.90;;;2.60;;
10041;SDS011;5061;49.068;12.058;2023-11-21T06:04:01;1.80;;;1.70;;
10041;SDS011;5061;49.068;12.058;2023-11-21T06:07:22;5.03;;;2.50;;
10041;SDS011;5061;49.068;12.058;2023-11-21T06:10:43;8.20;;;3.87;;
10041;SDS011;5061;49.068;12.058;2023-11-21T06:14:03;16.30;;;5.63;;
10041;SDS011;5061;49.068;12.058;2023-11-21T06:17:28;12.47;;;5.33;;
10041;SDS011;5061;49.068;12.058;2023-11-21T06:20:48;11.80;;;5.00;;
10041;SDS011;5061;49.068;12.058;2023-11-21T06:24:10;8.40;;;4.20;;
10041;SDS011;5061;49.068;12.058;2023-11-21T06:27:31;8.80;;;4.00;;
10041;SDS011;5061;49.068;12.058;2023-11-21T06:30:53;5.00;;;2.93;;
10041;SDS011;5061;49.068;12.058;2023-11-21T06:34:13;3.03;;;2.40;;
10041;SDS011;5061;49.068;12.058;2023-11-21T06:37:34;3.27;;;2.00;;
10041;SDS011;5061;49.068;12.058;2023-11-21T06:40:55;3.30;;;2.30;;
10041;SDS011;5061;49.068;12.058;2023-11-21T06:44:18;3.50;;;2.20;;
10041;SDS011;5061;49.068;12.058;2023-11-21T06:47:39;2.90;;;2.17;;
10041;SDS011;5061;49.068;12.058;2023-11-21T06:51:00;7.90;;;3.13;;
10041;SDS011;5061;49.068;12.058;2023-11-21T06:54:21;2.37;;;2.00;;
10041;SDS011;5061;49.068;12.058;2023-11-21T06:57:41;3.03;;;2.43;;
10041;SDS011;5061;49.068;12.058;2023-11-21T07:01:03;3.03;;;2.20;;
10041;SDS011;5061;49.068;12.058;2023-11-21T07:04:26;2.90;;;2.10;;
10041;SDS011;5061;49.068;12.058;2023-11-21T07:07:47;7.00;;;2.37;;
10041;SDS011;5061;49.068;12.058;2023-11-21T07:11:08;4.43;;;2.30;;
10041;SDS011;5061;49.068;12.058;2023-11-21T07:14:28;2.53;;;1.77;;
10041;SDS011;5061;49.068;12.058;2023-11-21T07:17:49;2.20;;;1.60;;
10041;SDS011;5061;49.068;12.058;2023-11-21T07:21:10;2.70;;;1.73;;
10041;SDS011;5061;49.068;12.058;2023-11-21T07:24:32;2.20;;;2.00;;
10041;SDS011;5061;49.068;12.058;2023-11-21T07:27:52;4.80;;;3.27;;
10041;SDS011;5061;49.068;12.058;2023-11-21T07:31:15;3.83;;;3.03;;
10041;SDS011;5061;49.068;12.058;2023-11-21T07:34:35;4.70;;;2.83;;
10041;SDS011;5061;49.068;12.058;2023-11-21T07:37:56;3.30;;;2.57;;
10041;SDS011;5061;49.068;12.058;2023-11-21T07:41:17;3.30;;;2.80;;
10041;SDS011;5061;49.068;12.058;2023-11-21T07:44:38;3.30;;;2.70;;
10041;SDS011;5061;49.068;12.058;2023-11-21T07:47:59;2.67;;;2.47;;
10041;SDS011;5061;49.068;12.058;2023-11-21T07:51:20;2.80;;;2.07;;
10041;SDS011;5061;49.068;12.058;2023-11-21T07:54:42;3.70;;;2.60;;
10041;SDS011;5061;49.068;12.058;2023-11-21T07:58:03;3.73;;;2.33;;
10041;SDS011;5061;49.068;12.058;2023-11-21T08:01:24;1.50;;;1.40;;
10041;SDS011;5061;49.068;12.058;2023-11-21T08:04:45;3.40;;;2.40;;
10041;SDS011;5061;49.068;12.058;2023-11-21T08:08:05;2.03;;;1.83;;
10041;SDS011;5061;49.068;12.058;2023-11-21T08:11:26;2.33;;;1.80;;
10041;SDS011;5061;49.068;12.058;2023-11-21T08:14:49;2.60;;;2.20;;
10041;SDS011;5061;49.068;12.058;2023-11-21T08:18:10;3.27;;;1.70;;
10041;SDS011;5061;49.068;12.058;2023-11-21T08:21:30;1.73;;;1.63;;
10041;SDS011;5061;49.068;12.058;2023-11-21T08:24:51;1.70;;;1.47;;
10041;SDS011;5061;49.068;12.058;2023-11-21T08:28:12;2.00;;;1.50;;
10041;SDS011;5061;49.068;12.058;2023-11-21T08:31:36;1.20;;;1.10;;
10041;SDS011;5061;49.068;12.058;2023-11-21T08:34:58;2.13;;;1.40;;
10041;SDS011;5061;49.068;12.058;2023-11-21T08:38:19;1.97;;;1.77;;
10041;SDS011;5061;49.068;12.058;2023-11-21T08:41:39;3.17;;;1.93;;
10041;SDS011;5061;49.068;12.058;2023-11-21T08:45:01;2.23;;;2.00;;
10041;SDS011;5061;49.068;12.058;2023-11-21T08:48:22;1.93;;;1.77;;
10041;SDS011;5061;49.068;12.058;2023-11-21T08:51:43;4.13;;;2.07;;
10041;SDS011;5061;49.068;12.058;2023-11-21T08:55:05;2.30;;;2.00;;
10041;SDS011;5061;49.068;12.058;2023-11-21T08:58:27;2.30;;;1.80;;
10041;SDS011;5061;49.068;12.058;2023-11-21T09:01:48;1.90;;;1.33;;
10041;SDS011;5061;49.068;12.058;2023-11-21T09:05:10;1.90;;;1.30;;
10041;SDS011;5061;49.068;12.058;2023-11-21T09:08:32;1.80;;;1.57;;
10041;SDS011;5061;49.068;12.058;2023-11-21T09:11:52;1.83;;;1.67;;
10041;SDS011;5061;49.068;12.058;2023-11-21T09:15:13;2.00;;;1.60;;
10041;SDS011;5061;49.068;12.058;2023-11-21T09:18:34;1.50;;;1.33;;
10041;SDS011;5061;49.068;12.058;2023-11-21T09:21:55;1.80;;;1.30;;
10041;SDS011;5061;49.068;12.058;2023-11-21T09:25:17;1.30;;;1.20;;
10041;SDS011;5061;49.068;12.058;2023-11-21T09:28:38;2.83;;;1.90;;
10041;SDS011;5061;49.068;12.058;2023-11-21T09:31:59;3.00;;;1.67;;
10041;SDS011;5061;49.068;12.058;2023-11-21T09:35:21;1.37;;;1.27;;
10041;SDS011;5061;49.068;12.058;2023-11-21T09:38:41;1.70;;;1.47;;
10041;SDS011;5061;49.068;12.058;2023-11-21T09:45:56;1.40;;;1.10;;
10041;SDS011;5061;49.068;12.058;2023-11-21T09:49:22;1.50;;;1.40;;
10041;SDS011;5061;49.068;12.058;2023-11-21T09:52:49;1.27;;;1.17;;
10041;SDS011;5061;49.068;12.058;2023-11-21T09:56:22;1.40;;;1.30;;
10041;SDS011;5061;49.068;12.058;2023-11-21T09:59:43;1.70;;;1.47;;
10041;SDS011;5061;49.068;12.058;2023-11-21T10:03:07;2.13;;;1.37;;
10041;SDS011;5061;49.068;12.058;2023-11-21T10:06:28;1.60;;;1.50;;
10041;SDS011;5061;49.068;12.058;2023-11-21T10:09:51;1.60;;;1.50;;
10041;SDS011;5061;49.068;12.058;2023-11-21T10:13:13;2.50;;;1.90;;
10041;SDS011;5061;49.068;12.058;2023-11-21T10:16:37;2.20;;;1.87;;
10041;SDS011;5061;49.068;12.058;2023-11-21T10:19:59;2.63;;;1.70;;
10041;SDS011;5061;49.068;12.058;2023-11-21T10:23:20;1.93;;;1.30;;
10041;SDS011;5061;49.068;12.058;2023-11-21T10:26:42;1.87;;;1.30;;
10041;SDS011;5061;49.068;12.058;2023-11-21T10:30:03;1.53;;;1.27;;
10041;SDS011;5061;49.068;12.058;2023-11-21T10:33:27;3.10;;;1.23;;
10041;SDS011;5061;49.068;12.058;2023-11-21T10:36:49;1.30;;;1.20;;
10041;SDS011;5061;49.068;12.058;2023-11-21T10:40:10;1.27;;;1.17;;
10041;SDS011;5061;49.068;12.058;2023-11-21T10:43:32;1.10;;;1.00;;
10041;SDS011;5061;49.068;12.058;2023-11-21T10:46:53;2.33;;;1.33;;
10041;SDS011;5061;49.068;12.058;2023-11-21T10:50:19;1.50;;;1.30;;
10041;SDS011;5061;49.068;12.058;2023-11-21T10:53:40;1.33;;;1.10;;
10041;SDS011;5061;49.068;12.058;2023-11-21T10:57:01;2.30;;;1.40;;
10041;SDS011;5061;49.068;12.058;2023-11-21T11:00:24;1.30;;;1.00;;
10041;SDS011;5061;49.068;12.058;2023-11-21T11:03:47;1.40;;;1.30;;
10041;SDS011;5061;49.068;12.058;2023-11-21T11:07:09;3.00;;;1.33;;
10041;SDS011;5061;49.068;12.058;2023-11-21T11:10:32;1.50;;;1.10;;
10041;SDS011;5061;49.068;12.058;2023-11-21T11:13:53;1.50;;;1.30;;
10041;SDS011;5061;49.068;12.058;2023-11-21T11:17:14;1.33;;;1.03;;
10041;SDS011;5061;49.068;12.058;2023-11-21T11:20:35;2.30;;;1.27;;
10041;SDS011;5061;49.068;12.058;2023-11-21T11:24:13;3.20;;;1.20;;
10041;SDS011;5061;49.068;12.058;2023-11-21T11:28:14;2.57;;;1.40;;
10041;SDS011;5061;49.068;12.058;2023-11-21T11:31:50;1.50;;;1.30;;
10041;SDS011;5061;49.068;12.058;2023-11-21T11:35:34;1.70;;;1.20;;
10041;SDS011;5061;49.068;12.058;2023-11-21T11:38:58;2.40;;;1.33;;
10041;SDS011;5061;49.068;12.058;2023-11-21T11:42:21;1.30;;;1.20;;
10041;SDS011;5061;49.068;12.058;2023-11-21T11:45:43;1.60;;;1.10;;
10041;SDS011;5061;49.068;12.058;2023-11-21T11:49:04;1.40;;;1.30;;
10041;SDS011;5061;49.068;12.058;2023-11-21T11:52:35;1.10;;;1.00;;
10041;SDS011;5061;49.068;12.058;2023-11-21T12:03:31;2.13;;;1.00;;
10041;SDS011;5061;49.068;12.058;2023-11-21T12:06:53;1.57;;;1.20;;
10041;SDS011;5061;49.068;12.058;2023-11-21T12:10:15;1.20;;;0.90;;
10041;SDS011;5061;49.068;12.058;2023-11-21T12:13:38;1.20;;;1.10;;
10041;SDS011;5061;49.068;12.058;2023-11-21T12:16:59;1.13;;;0.80;;
10041;SDS011;5061;49.068;12.058;2023-11-21T12:20:21;1.10;;;1.00;;
10041;SDS011;5061;49.068;12.058;2023-11-21T12:23:43;1.23;;;1.00;;
10041;SDS011;5061;49.068;12.058;2023-11-21T12:27:05;1.20;;;1.10;;
10041;SDS011;5061;49.068;12.058;2023-11-21T12:30:27;2.43;;;1.40;;
10041;SDS011;5061;49.068;12.058;2023-11-21T12:33:50;1.40;;;1.20;;
10041;SDS011;5061;49.068;12.058;2023-11-21T12:37:12;2.30;;;1.40;;
10041;SDS011;5061;49.068;12.058;2023-11-21T12:40:32;1.40;;;1.27;;
10041;SDS011;5061;49.068;12.058;2023-11-21T12:43:54;4.00;;;2.03;;
10041;SDS011;5061;49.068;12.058;2023-11-21T12:47:19;2.53;;;1.70;;
10041;SDS011;5061;49.068;12.058;2023-11-21T12:50:41;1.90;;;1.63;;
10041;SDS011;5061;49.068;12.058;2023-11-21T12:54:02;2.10;;;1.90;;
10041;SDS011;5061;49.068;12.058;2023-11-21T12:57:26;1.50;;;1.40;;
10041;SDS011;5061;49.068;12.058;2023-11-21T13:00:48;2.10;;;1.60;;
10041;SDS011;5061;49.068;12.058;2023-11-21T13:04:09;1.67;;;1.37;;
10041;SDS011;5061;49.068;12.058;2023-11-21T13:07:30;2.97;;;2.30;;
10041;SDS011;5061;49.068;12.058;2023-11-21T13:11:07;2.03;;;1.57;;
10041;SDS011;5061;49.068;12.058;2023-11-21T13:14:29;2.20;;;1.60;;
10041;SDS011;5061;49.068;12.058;2023-11-21T13:17:51;2.40;;;1.40;;
10041;SDS011;5061;49.068;12.058;2023-11-21T13:21:13;2.40;;;2.10;;
10041;SDS011;5061;49.068;12.058;2023-11-21T13:24:35;1.73;;;1.63;;
10041;SDS011;5061;49.068;12.058;2023-11-21T13:27:56;5.93;;;2.03;;
10041;SDS011;5061;49.068;12.058;2023-11-21T13:31:20;2.10;;;1.50;;
10041;SDS011;5061;49.068;12.058;2023-11-21T13:34:42;3.30;;;1.87;;
10041;SDS011;5061;49.068;12.058;2023-11-21T13:38:05;1.73;;;1.57;;
10041;SDS011;5061;49.068;12.058;2023-11-21T13:41:32;1.63;;;1.33;;
10041;SDS011;5061;49.068;12.058;2023-11-21T13:44:57;2.60;;;1.40;;
10041;SDS011;5061;49.068;12.058;2023-11-21T13:48:17;2.20;;;1.80;;
10041;SDS011;5061;49.068;12.058;2023-11-21T13:51:45;2.37;;;1.80;;
10041;SDS011;5061;49.068;12.058;2023-11-21T13:55:08;2.00;;;1.67;;
10041;SDS011;5061;49.068;12.058;2023-11-21T13:58:35;1.63;;;1.53;;
10041;SDS011;5061;49.068;12.058;2023-11-21T14:02:07;1.70;;;1.47;;
10041;SDS011;5061;49.068;12.058;2023-11-21T14:05:45;2.27;;;1.70;;
10041;SDS011;5061;49.068;12.058;2023-11-21T14:09:08;5.13;;;1.77;;
10041;SDS011;5061;49.068;12.058;2023-11-21T14:12:28;2.43;;;1.60;;
10041;SDS011;5061;49.068;12.058;2023-11-21T14:15:53;1.43;;;1.33;;
10041;SDS011;5061;49.068;12.058;2023-11-21T14:19:18;2.00;;;1.73;;
10041;SDS011;5061;49.068;12.058;2023-11-21T14:22:39;3.23;;;2.63;;
10041;SDS011;5061;49.068;12.058;2023-11-21T14:26:00;2.03;;;1.70;;
10041;SDS011;5061;49.068;12.058;2023-11-21T14:29:21;2.13;;;1.80;;
10041;SDS011;5061;49.068;12.058;2023-11-21T14:32:43;4.70;;;1.93;;
10041;SDS011;5061;49.068;12.058;2023-11-21T14:36:04;2.30;;;1.60;;
10041;SDS011;5061;49.068;12.058;2023-11-21T14:39:25;1.53;;;1.43;;
10041;SDS011;5061;49.068;12.058;2023-11-21T14:42:48;1.60;;;1.50;;
10041;SDS011;5061;49.068;12.058;2023-11-21T14:46:08;3.00;;;2.10;;
10041;SDS011;5061;49.068;12.058;2023-11-21T14:49:34;1.50;;;1.37;;
10041;SDS011;5061;49.068;12.058;2023-11-21T14:53:11;1.70;;;1.20;;
10041;SDS011;5061;49.068;12.058;2023-11-21T14:56:35;2.00;;;1.60;;
10041;SDS011;5061;49.068;12.058;2023-11-21T14:59:58;2.00;;;1.77;;
10041;SDS011;5061;49.068;12.058;2023-11-21T15:03:18;2.10;;;2.00;;
10041;SDS011;5061;49.068;12.058;2023-11-21T15:07:02;2.13;;;1.93;;
10041;SDS011;5061;49.068;12.058;2023-11-21T15:10:24;1.33;;;1.23;;
10041;SDS011;5061;49.068;12.058;2023-11-21T15:13:59;1.80;;;1.60;;
10041;SDS011;5061;49.068;12.058;2023-11-21T15:17:27;1.70;;;1.50;;
10041;SDS011;5061;49.068;12.058;2023-11-21T15:20:50;3.27;;;1.70;;
10041;SDS011;5061;49.068;12.058;2023-11-21T15:24:11;1.37;;;1.27;;
10041;SDS011;5061;49.068;12.058;2023-11-21T15:27:32;1.53;;;1.43;;
10041;SDS011;5061;49.068;12.058;2023-11-21T15:30:52;1.90;;;1.80;;
10041;SDS011;5061;49.068;12.058;2023-11-21T15:34:14;2.43;;;2.23;;
10041;SDS011;5061;49.068;12.058;2023-11-21T15:37:35;2.20;;;1.97;;
10041;SDS011;5061;49.068;12.058;2023-11-21T15:40:55;3.80;;;2.50;;
10041;SDS011;5061;49.068;12.058;2023-11-21T15:44:18;1.90;;;1.80;;
10041;SDS011;5061;49.068;12.058;2023-11-21T15:47:39;3.97;;;2.10;;
10041;SDS011;5061;49.068;12.058;2023-11-21T15:51:02;1.97;;;1.77;;
10041;SDS011;5061;49.068;12.058;2023-11-21T15:54:25;2.10;;;1.90;;
10041;SDS011;5061;49.068;12.058;2023-11-21T15:57:46;1.83;;;1.67;;
10041;SDS011;5061;49.068;12.058;2023-11-21T16:01:07;2.70;;;1.67;;
10041;SDS011;5061;49.068;12.058;2023-11-21T16:04:30;2.53;;;2.13;;
10041;SDS011;5061;49.068;12.058;2023-11-21T16:07:50;2.10;;;1.87;;
10041;SDS011;5061;49.068;12.058;2023-11-21T16:11:11;3.20;;;2.10;;
10041;SDS011;5061;49.068;12.058;2023-11-21T16:14:35;2.20;;;1.90;;
10041;SDS011;5061;49.068;12.058;2023-11-21T16:18:05;2.33;;;1.70;;
10041;SDS011;5061;49.068;12.058;2023-11-21T16:21:25;3.63;;;1.63;;
10041;SDS011;5061;49.068;12.058;2023-11-21T16:24:46;2.73;;;2.17;;
10041;SDS011;5061;49.068;12.058;2023-11-21T16:28:06;1.53;;;1.43;;
10041;SDS011;5061;49.068;12.058;2023-11-21T16:31:27;3.73;;;1.50;;
10041;SDS011;5061;49.068;12.058;2023-11-21T16:34:48;1.73;;;1.50;;
10041;SDS011;5061;49.068;12.058;2023-11-21T16:38:09;1.60;;;1.40;;
10041;SDS011;5061;49.068;12.058;2023-11-21T16:41:30;1.60;;;1.30;;
10041;SDS011;5061;49.068;12.058;2023-11-21T16:44:51;1.40;;;1.27;;
10041;SDS011;5061;49.068;12.058;2023-11-21T16:48:13;4.80;;;2.07;;
10041;SDS011;5061;49.068;12.058;2023-11-21T16:51:33;1.67;;;1.50;;
10041;SDS011;5061;49.068;12.058;2023-11-21T16:54:54;1.83;;;1.67;;
10041;SDS011;5061;49.068;12.058;2023-11-21T16:58:14;2.07;;;1.80;;
10041;SDS011;5061;49.068;12.058;2023-11-21T17:01:36;5.63;;;3.30;;
10041;SDS011;5061;49.068;12.058;2023-11-21T17:04:56;7.33;;;4.17;;
10041;SDS011;5061;49.068;12.058;2023-11-21T17:08:18;14.13;;;6.70;;
10041;SDS011;5061;49.068;12.058;2023-11-21T17:11:40;7.53;;;4.63;;
10041;SDS011;5061;49.068;12.058;2023-11-21T17:15:01;5.53;;;4.17;;
10041;SDS011;5061;49.068;12.058;2023-11-21T17:18:21;12.93;;;3.07;;
10041;SDS011;5061;49.068;12.058;2023-11-21T17:21:43;3.77;;;2.47;;
10041;SDS011;5061;49.068;12.058;2023-11-21T17:25:07;2.63;;;2.37;;
10041;SDS011;5061;49.068;12.058;2023-11-21T17:28:28;3.10;;;2.17;;
10041;SDS011;5061;49.068;12.058;2023-11-21T17:31:49;3.27;;;2.37;;
10041;SDS011;5061;49.068;12.058;2023-11-21T17:35:10;4.50;;;2.93;;
10041;SDS011;5061;49.068;12.058;2023-11-21T17:38:31;4.30;;;2.60;;
10041;SDS011;5061;49.068;12.058;2023-11-21T17:41:52;3.47;;;2.00;;
10041;SDS011;5061;49.068;12.058;2023-11-21T17:45:12;4.37;;;2.27;;
10041;SDS011;5061;49.068;12.058;2023-11-21T17:48:33;3.23;;;2.27;;
10041;SDS011;5061;49.068;12.058;2023-11-21T17:51:56;3.93;;;2.47;;
10041;SDS011;5061;49.068;12.058;2023-11-21T17:55:17;3.87;;;2.63;;
10041;SDS011;5061;49.068;12.058;2023-11-21T17:58:37;2.03;;;1.83;;
10041;SDS011;5061;49.068;12.058;2023-11-21T18:01:58;3.83;;;2.97;;
10041;SDS011;5061;49.068;12.058;2023-11-21T18:05:18;7.57;;;4.30;;
10041;SDS011;5061;49.068;12.058;2023-11-21T18:08:41;4.10;;;3.50;;
10041;SDS011;5061;49.068;12.058;2023-11-21T18:12:06;5.07;;;3.40;;
10041;SDS011;5061;49.068;12.058;2023-11-21T18:15:27;3.50;;;2.50;;
10041;SDS011;5061;49.068;12.058;2023-11-21T18:18:48;5.50;;;2.63;;
10041;SDS011;5061;49.068;12.058;2023-11-21T18:22:10;3.00;;;2.47;;
10041;SDS011;5061;49.068;12.058;2023-11-21T18:25:30;2.77;;;2.40;;
10041;SDS011;5061;49.068;12.058;2023-11-21T18:28:51;3.17;;;2.50;;
10041;SDS011;5061;49.068;12.058;2023-11-21T18:32:12;4.73;;;2.93;;
10041;SDS011;5061;49.068;12.058;2023-11-21T18:35:32;2.77;;;1.87;;
10041;SDS011;5061;49.068;12.058;2023-11-21T18:38:53;4.10;;;2.60;;
10041;SDS011;5061;49.068;12.058;2023-11-21T18:42:14;5.00;;;2.70;;
10041;SDS011;5061;49.068;12.058;2023-11-21T18:45:34;4.00;;;3.03;;
10041;SDS011;5061;49.068;12.058;2023-11-21T18:48:55;2.57;;;2.20;;
10041;SDS011;5061;49.068;12.058;2023-11-21T18:52:16;3.80;;;2.33;;
10041;SDS011;5061;49.068;12.058;2023-11-21T18:55:36;2.70;;;1.80;;
10041;SDS011;5061;49.068;12.058;2023-11-21T18:58:58;2.10;;;1.90;;
10041;SDS011;5061;49.068;12.058;2023-11-21T19:02:19;2.47;;;2.27;;
10041;SDS011;5061;49.068;12.058;2023-11-21T19:05:39;2.50;;;2.20;;
10041;SDS011;5061;49.068;12.058;2023-11-21T19:09:00;4.53;;;2.00;;
10041;SDS011;5061;49.068;12.058;2023-11-21T19:12:20;3.63;;;2.80;;
10041;SDS011;5061;49.068;12.058;2023-11-21T19:15:41;4.17;;;2.47;;
10041;SDS011;5061;49.068;12.058;2023-11-21T19:19:04;4.17;;;3.07;;
10041;SDS011;5061;49.068;12.058;2023-11-21T19:22:25;4.43;;;3.23;;
10041;SDS011;5061;49.068;12.058;2023-11-21T19:25:45;7.83;;;2.57;;
10041;SDS011;5061;49.068;12.058;2023-11-21T19:29:06;2.50;;;2.20;;
10041;SDS011;5061;49.068;12.058;2023-11-21T19:32:28;2.60;;;2.30;;
10041;SDS011;5061;49.068;12.058;2023-11-21T19:35:49;5.20;;;3.20;;
10041;SDS011;5061;49.068;12.058;2023-11-21T19:39:10;4.67;;;3.23;;
10041;SDS011;5061;49.068;12.058;2023-11-21T19:42:32;5.30;;;2.97;;
10041;SDS011;5061;49.068;12.058;2023-11-21T19:45:56;5.20;;;3.20;;
10041;SDS011;5061;49.068;12.058;2023-11-21T19:49:17;5.80;;;3.30;;
10041;SDS011;5061;49.068;12.058;2023-11-21T19:52:39;4.33;;;3.40;;
10041;SDS011;5061;49.068;12.058;2023-11-21T19:56:00;4.43;;;2.93;;
10041;SDS011;5061;49.068;12.058;2023-11-21T19:59:21;6.37;;;3.03;;
10041;SDS011;5061;49.068;12.058;2023-11-21T20:02:43;4.63;;;3.20;;
10041;SDS011;5061;49.068;12.058;2023-11-21T20:06:04;5.87;;;3.33;;
10041;SDS011;5061;49.068;12.058;2023-11-21T20:09:26;5.73;;;3.50;;
10041;SDS011;5061;49.068;12.058;2023-11-21T20:12:47;3.13;;;2.50;;
10041;SDS011;5061;49.068;12.058;2023-11-21T20:16:07;5.53;;;3.07;;
10041;SDS011;5061;49.068;12.058;2023-11-21T20:19:28;6.57;;;3.47;;
10041;SDS011;5061;49.068;12.058;2023-11-21T20:22:50;10.57;;;3.97;;
10041;SDS011;5061;49.068;12.058;2023-11-21T20:26:11;4.17;;;3.17;;
10041;SDS011;5061;49.068;12.058;2023-11-21T20:29:39;5.77;;;3.30;;